Latest Weather Observations for Paraburdoo

IDW60801

Issued at 11:05 pm WST Thursday 24 July 2014 (issued every 30 minutes, with the page automatically refreshed every 10 minutes)

About weather observations | Map of weather stations | Latest weather observations for WA | Other Formats
Station Details ID: 007185 Name: PARABURDOO AERO Lat: -23.17 Lon: 117.75 Height: 423.7 m
Data from the previous 72 hours. | See also: Recent months at Paraburdoo
Date/Time
WST
Temp
°C
App
Temp
°C
Dew
Point
Rel
Hum
%
Delta-T
°C
Wind Press
QNH
hPa
Press
MSL
hPa
Rain
since 9 am
mm
Dir
 
Spd
km/h
Gust
km/h
Spd
kts
Gust
kts
24/11:00pm 10.6 5.7 -3.8 36 5.4 E 13 15 7 8 1021.0 - 0.0
24/10:30pm 9.9 5.6 -4.8 35 5.4 NE 9 13 5 7 1021.4 - 0.0
24/10:00pm 12.1 7.2 -3.7 33 6.1 ENE 13 15 7 8 1021.3 - 0.0
24/09:30pm 11.1 6.8 -4.5 33 5.9 NE 9 11 5 6 1021.3 - 0.0
24/09:00pm 12.3 7.7 -3.9 32 6.2 ESE 11 13 6 7 1021.5 1020.5 0.0
24/08:30pm 13.2 8.6 -4.0 30 6.7 E 11 13 6 7 1021.4 - 0.0
24/08:00pm 13.6 9.1 -3.6 30 6.8 ESE 11 13 6 7 1021.3 - 0.0
24/07:30pm 14.3 9.7 -4.4 27 7.3 ESE 11 13 6 7 1020.9 - 0.0
24/07:00pm 15.0 10.4 -4.3 26 7.6 ESE 11 13 6 7 1020.4 - 0.0
24/06:30pm 16.5 12.3 -4.1 24 8.3 ESE 9 13 5 7 1020.3 - 0.0
24/06:00pm 18.0 14.1 -4.6 21 9.1 SE 7 9 4 5 1020.0 1019.1 0.0
24/05:30pm 19.8 14.7 -5.2 18 10.2 E 13 17 7 9 1019.8 - 0.0
24/05:00pm 20.7 15.1 -6.0 16 10.8 E 15 22 8 12 1019.5 - 0.0
24/04:30pm 21.0 15.8 -6.6 15 11.0 E 13 20 7 11 1019.5 - 0.0
24/04:00pm 21.4 15.1 -6.3 15 11.2 E 19 26 10 14 1019.2 - 0.0
24/03:30pm 21.5 15.5 -6.2 15 11.2 E 17 22 9 12 1019.3 - 0.0
24/03:00pm 21.3 15.8 -5.5 16 11.0 E 15 24 8 13 1019.2 1018.2 0.0
24/02:30pm 21.4 16.4 -4.6 17 10.8 E 13 20 7 11 1019.4 - 0.0
24/02:00pm 20.5 14.5 -3.2 20 10.1 ESE 19 26 10 14 1019.6 - 0.0
24/01:30pm 19.9 13.8 -2.4 22 9.6 ESE 20 30 11 16 1019.9 - 0.0
24/01:00pm 19.8 14.1 -0.8 25 9.1 E 19 26 10 14 1020.4 - 0.0
24/12:30pm 18.3 12.5 0.0 29 8.2 ESE 20 30 11 16 1020.9 - 0.0
24/12:00pm 19.2 13.7 0.8 29 8.4 E 19 30 10 16 1021.8 1020.9 0.0
24/11:30am 17.5 11.4 0.6 32 7.6 E 22 32 12 17 1022.2 - 0.0
24/11:00am 16.4 10.0 0.9 35 6.9 E 24 35 13 19 1022.7 - 0.0
24/10:30am 16.1 10.2 1.8 38 6.5 E 22 32 12 17 1023.2 - 0.0
24/10:00am 15.3 8.7 2.1 41 6.0 ESE 26 35 14 19 1023.3 - 0.0
24/09:30am 13.5 6.9 1.8 45 5.2 ESE 26 37 14 20 1023.5 - 0.0
24/09:00am 12.9 5.9 1.9 47 4.8 ESE 28 37 15 20 1023.8 1022.8 0.0
24/08:30am 12.2 5.5 1.5 48 4.7 E 26 35 14 19 1023.3 - 0.0
24/08:00am 11.7 5.0 1.4 49 4.5 E 26 33 14 18 1023.0 - 0.0
24/07:30am 11.1 5.4 0.8 49 4.4 E 20 28 11 15 1022.7 - 0.0
24/07:00am 9.1 4.6 -0.2 52 3.8 ENE 13 20 7 11 1022.0 - 0.0
24/06:30am 8.3 3.8 -0.4 54 3.5 ESE 13 15 7 8 1021.9 - 0.0
24/06:00am 6.6 2.7 -1.3 57 3.0 ESE 9 11 5 6 1021.4 1020.4 0.0
24/05:30am 8.1 4.1 -2.0 49 3.9 SE 9 13 5 7 1021.1 - 0.0
24/05:00am 9.7 6.3 -0.5 49 4.1 SSE 7 11 4 6 1021.1 - 0.0
24/04:30am 10.4 7.0 -0.7 46 4.5 ESE 7 11 4 6 1020.9 - 0.0
24/04:00am 10.4 6.7 -0.1 48 4.3 ESE 9 11 5 6 1020.8 - 0.0
24/03:30am 10.0 6.6 -1.7 44 4.6 SSE 6 9 3 5 1021.0 - 0.0
24/03:00am 12.1 8.0 -0.4 42 5.2 SE 11 19 6 10 1020.9 1020.0 0.0
24/02:30am 12.0 7.5 -0.2 43 5.1 SE 13 15 7 8 1020.8 - 0.0
24/02:00am 12.4 7.9 -0.5 41 5.4 SE 13 19 7 10 1020.8 - 0.0
24/01:30am 13.1 8.6 -0.5 39 5.7 SSE 13 19 7 10 1020.7 - 0.0
24/01:00am 12.5 8.3 -0.7 40 5.5 SE 11 15 6 8 1020.7 - 0.0
24/12:30am 13.8 9.6 -1.0 36 6.2 ESE 11 20 6 11 1020.7 - 0.0
24/12:00am 12.0 8.3 -2.6 36 5.8 ENE 7 11 4 6 1020.6 1019.7 0.0
 
Date/Time
WST
Temp
°C
App
Temp
°C
Dew
Point
Rel
Hum
%
Delta-T
°C
Wind Press
QNH
hPa
Press
MSL
hPa
Rain
since 9 am
mm
Dir
 
Spd
km/h
Gust
km/h
Spd
kts
Gust
kts
23/11:30pm 14.5 9.5 -1.2 34 6.6 S 15 17 8 9 1020.7 - 0.0
23/11:00pm 13.5 8.9 -1.3 36 6.1 S 13 15 7 8 1020.8 - 0.0
23/10:30pm 8.9 5.1 -3.6 41 4.7 S 7 11 4 6 1020.9 - 0.0
23/10:00pm 9.5 6.6 -4.4 37 5.1 E 2 7 1 4 1020.8 - 0.0
23/09:30pm 10.0 6.3 -4.7 35 5.4 NE 6 6 3 3 1020.8 - 0.0
23/09:00pm 11.4 7.9 -3.1 36 5.6 NE 6 6 3 3 1020.7 1019.8 0.0
23/08:30pm 12.9 10.6 -2.6 34 6.2 CALM 0 0 0 0 1020.5 - 0.0
23/08:00pm 13.2 9.8 -2.3 34 6.3 S 6 7 3 4 1020.4 - 0.0
23/07:30pm 14.9 10.9 -2.5 30 7.1 S 9 13 5 7 1020.3 - 0.0
23/07:00pm 16.3 11.9 -2.2 28 7.7 S 11 13 6 7 1019.9 - 0.0
23/06:30pm 17.7 13.0 -2.0 26 8.4 SSW 13 17 7 9 1019.7 - 0.0
23/06:00pm 18.6 13.5 -2.3 24 8.9 SSW 15 19 8 10 1019.5 1018.5 0.0
23/05:30pm 19.7 14.1 -2.6 22 9.5 SSW 17 22 9 12 1019.3 - 0.0
23/05:00pm 20.4 14.8 -3.3 20 10.1 S 17 22 9 12 1019.1 - 0.0
23/04:30pm 21.0 15.3 -3.5 19 10.4 SSW 17 20 9 11 1018.8 - 0.0
23/04:00pm 21.5 16.6 -3.1 19 10.6 SSW 13 20 7 11 1018.4 - 0.0
23/03:30pm 21.5 17.9 -2.4 20 10.4 SSW 7 15 4 8 1018.3 - 0.0
23/03:00pm 21.2 16.8 -2.6 20 10.3 S 11 19 6 10 1018.3 1017.4 0.0
23/02:30pm 21.0 15.9 -2.1 21 10.1 S 15 24 8 13 1018.5 - 0.0
23/02:00pm 20.9 16.7 -1.0 23 9.8 SSW 11 19 6 10 1019.1 - 0.0
23/01:30pm 20.1 15.9 -1.1 24 9.4 S 11 20 6 11 1019.4 - 0.0
23/01:00pm 19.2 14.6 -1.3 25 9.0 SE 13 19 7 10 1019.7 - 0.0
23/12:30pm 18.6 14.0 -0.7 27 8.5 SSE 13 20 7 11 1020.3 - 0.0
23/12:00pm 18.5 14.8 0.2 29 8.2 SSE 9 19 5 10 1021.0 1020.1 0.0
23/11:30am 17.5 13.1 0.2 31 7.7 SSE 13 24 7 13 1021.7 - 0.0
23/11:00am 17.7 13.4 1.2 33 7.5 S 13 22 7 12 1022.2 - 0.0
23/10:30am 16.5 11.1 1.0 35 6.9 SSE 19 24 10 13 1022.5 - 0.0
23/10:00am 16.1 10.5 1.4 37 6.6 E 20 28 11 15 1022.4 - 0.0
23/09:30am 15.3 9.1 2.1 41 6.0 ESE 24 33 13 18 1022.4 - 0.0
23/09:00am 14.5 8.3 2.1 43 5.6 ESE 24 33 13 18 1022.2 1021.3 0.0
23/08:30am 13.8 7.6 2.4 46 5.1 E 24 33 13 18 1022.0 - 0.0
23/08:00am 13.2 8.0 2.4 48 4.8 E 19 26 10 14 1021.8 - 0.0
23/07:30am 11.9 7.4 2.4 52 4.2 E 15 19 8 10 1021.7 - 0.0
23/07:00am 8.7 4.6 2.3 64 2.8 E 13 15 7 8 1021.6 - 0.0
23/06:30am 7.7 3.9 1.5 65 2.6 E 11 13 6 7 1021.4 - 0.0
23/06:00am 8.6 4.8 2.0 63 2.8 E 11 13 6 7 1021.3 1020.3 0.0
23/05:30am 11.3 7.4 3.3 58 3.6 SE 13 20 7 11 1021.0 - 0.0
23/05:00am 7.6 4.0 0.6 61 2.9 E 9 11 5 6 1020.7 - 0.0
23/04:30am 8.0 4.4 0.5 59 3.1 SE 9 11 5 6 1020.5 - 0.0
23/04:00am 8.5 5.3 0.5 57 3.3 SE 7 9 4 5 1020.7 - 0.0
23/03:30am 9.1 5.2 1.0 57 3.4 ESE 11 15 6 8 1020.5 - 0.0
23/03:00am 8.7 5.4 0.2 55 3.5 E 7 11 4 6 1020.4 1019.5 0.0
23/02:30am 8.7 5.0 -0.3 53 3.6 SE 9 11 5 6 1020.2 - 0.0
23/02:00am 8.9 5.8 0.1 54 3.6 E 6 9 3 5 1020.2 - 0.0
23/01:30am 9.6 5.9 0.2 52 3.9 E 9 11 5 6 1020.4 - 0.0
23/01:00am 9.8 6.1 0.2 51 4.0 E 9 11 5 6 1020.6 - 0.0
23/12:30am 9.3 5.5 -0.6 50 4.0 ENE 9 11 5 6 1020.7 - 0.0
23/12:00am 10.4 7.3 -0.1 48 4.3 ENE 6 7 3 4 1020.8 1019.9 0.0
 
Date/Time
WST
Temp
°C
App
Temp
°C
Dew
Point
Rel
Hum
%
Delta-T
°C
Wind Press
QNH
hPa
Press
MSL
hPa
Rain
since 9 am
mm
Dir
 
Spd
km/h
Gust
km/h
Spd
kts
Gust
kts
22/11:30pm 13.0 9.4 0.7 43 5.3 SSE 9 13 5 7 1020.8 - 0.0
22/11:00pm 14.1 10.1 0.7 40 5.8 S 11 13 6 7 1020.9 - 0.0
22/10:30pm 15.3 11.0 0.7 37 6.4 S 13 17 7 9 1020.9 - 0.0
22/10:00pm 15.5 11.2 0.9 37 6.5 S 13 15 7 8 1020.8 - 0.0
22/09:30pm 15.1 11.3 1.6 40 6.1 S 11 15 6 8 1020.6 - 0.0
22/09:00pm 16.0 11.8 1.7 38 6.5 S 13 15 7 8 1020.4 1019.5 0.0
22/08:30pm 16.8 12.7 2.0 37 6.8 S 13 15 7 8 1020.3 - 0.0
22/08:00pm 17.0 13.2 1.8 36 7.0 S 11 17 6 9 1019.9 - 0.0
22/07:30pm 16.7 13.0 2.5 38 6.6 S 11 13 6 7 1019.6 - 0.0
22/07:00pm 18.1 14.3 1.6 33 7.6 SSW 11 15 6 8 1019.3 - 0.0
22/06:30pm 18.7 15.3 2.1 33 7.7 S 9 13 5 7 1018.9 - 0.0
22/06:00pm 19.4 15.4 2.7 33 7.9 S 13 19 7 10 1018.4 1017.5 0.0
22/05:30pm 20.2 15.4 2.5 31 8.4 S 17 22 9 12 1018.1 - 0.0
22/05:00pm 20.7 15.5 3.4 32 8.4 S 20 32 11 17 1018.1 - 0.0
22/04:30pm 21.3 15.8 4.0 32 8.5 SW 22 33 12 18 1017.9 - 0.0
22/04:00pm 21.4 16.2 3.6 31 8.7 SW 20 32 11 17 1017.9 - 0.0
22/03:30pm 21.5 16.7 4.6 33 8.4 SSW 19 30 10 16 1017.8 - 0.0
22/03:00pm 21.4 16.5 4.9 34 8.3 SW 20 32 11 17 1017.9 1017.0 0.0
22/02:30pm 20.9 17.0 5.3 36 7.9 S 15 22 8 12 1017.9 - 0.0
22/02:00pm 20.7 15.3 4.3 34 8.1 WSW 22 30 12 16 1018.0 - 0.0
22/01:30pm 20.8 16.1 3.1 31 8.6 S 17 26 9 14 1018.1 - 0.0
22/01:00pm 20.2 15.8 2.5 31 8.4 SW 15 22 8 12 1018.4 - 0.0
22/12:30pm 19.2 14.5 3.4 35 7.6 SW 17 26 9 14 1019.0 - 0.0
22/12:00pm 19.2 15.0 3.8 36 7.4 SW 15 22 8 12 1019.4 1018.4 0.0
22/11:30am 19.3 13.8 3.9 36 7.5 SSW 22 32 12 17 1019.8 - 0.0
22/11:00am 18.7 14.6 4.1 38 7.1 SSW 15 20 8 11 1020.2 - 0.0
22/10:30am 17.5 13.7 4.1 41 6.4 SSW 13 17 7 9 1020.5 - 0.0
22/10:00am 17.5 14.2 4.5 42 6.3 S 11 17 6 9 1020.7 - 0.0
22/09:30am 16.0 13.9 4.1 45 5.7 WNW 4 7 2 4 1020.9 - 0.0
22/09:00am 15.0 12.9 3.8 47 5.2 SW 4 7 2 4 1020.9 1020.0 0.0
22/08:30am 14.7 13.3 3.5 47 5.2 CALM 0 0 0 0 1020.9 - 0.0
22/08:00am 11.9 9.4 3.7 57 3.7 ENE 6 7 3 4 1020.6 - 0.0
22/07:30am 9.2 6.6 3.4 67 2.6 E 6 7 3 4 1020.3 - 0.0
22/07:00am 8.0 5.4 3.1 71 2.1 E 6 9 3 5 1020.0 - 0.0
22/06:30am 7.1 4.4 2.4 72 2.0 E 6 9 3 5 1019.6 - 0.0
22/06:00am 9.4 5.8 3.2 65 2.7 NNW 11 11 6 6 1019.4 1018.4 0.0
22/05:30am 9.9 6.7 3.2 63 3.0 NNW 9 11 5 6 1019.1 - 0.0
22/05:00am 10.5 7.0 3.3 61 3.2 NNW 11 11 6 6 1018.8 - 0.0
22/04:30am 11.2 8.0 3.3 58 3.6 NNW 9 11 5 6 1018.6 - 0.0
22/04:00am 12.0 8.5 3.3 55 3.9 WNW 11 13 6 7 1018.4 - 0.0
22/03:30am 12.1 8.6 3.3 55 4.0 W 11 13 6 7 1018.3 - 0.0
22/03:00am 13.0 8.7 3.4 52 4.4 W 15 20 8 11 1018.0 1017.1 0.0
22/02:30am 12.8 9.7 3.7 54 4.2 WSW 9 13 5 7 1017.8 - 0.0
22/02:00am 14.6 11.1 3.7 48 5.1 WSW 11 17 6 9 1017.5 - 0.0
22/01:30am 14.4 12.1 5.7 56 4.2 WSW 7 9 4 5 1017.4 - 0.0
22/01:00am 14.0 13.7 13.2 95 0.5 W 7 11 4 6 1017.4 - 0.0
22/12:30am 13.5 13.2 13.3 99 0.1 W 7 9 4 5 1017.3 - 0.0
22/12:00am 14.3 14.3 14.1 99 0.1 NNW 7 9 4 5 1017.0 1016.0 0.0
 
Date/Time
WST
Temp
°C
App
Temp
°C
Dew
Point
Rel
Hum
%
Delta-T
°C
Wind Press
QNH
hPa
Press
MSL
hPa
Rain
since 9 am
mm
Dir
 
Spd
km/h
Gust
km/h
Spd
kts
Gust
kts
21/11:30pm 15.2 15.7 15.0 99 0.1 N 6 9 3 5 1016.9 - 0.0

Other Formats:

Comma delimited format used in spreadsheet applications
http://www.bom.gov.au/fwo/IDW60801/IDW60801.94316.axf

JavaScript Object Notation format (JSON) in row-major order
http://www.bom.gov.au/fwo/IDW60801/IDW60801.94316.json